Time;durP1;ratioP1;P1;durP2;ratioP2;P2;SDS_P1;SDS_P2;PMS_P1;PMS_P2;Temp;Humidity;BMP_temperature;BMP_pressure;BME280_temperature;BME280_humidity;BME280_pressure;Samples;Min_cycle;Max_cycle;Signal;HPM_P1;HPM_P2
2021/09/22 04:02:07;;;;;;;16.70;15.03;;;10.10;99.90;;;;;;5185139;23;20498;-67
2021/09/22 04:04:34;;;;;;;14.93;13.63;;;10.10;99.90;;;;;;4956620;29;20462;-65
2021/09/22 04:07:01;;;;;;;17.20;14.93;;;10.00;99.90;;;;;;4955953;29;20455;-66
2021/09/22 04:09:27;;;;;;;16.77;15.17;;;9.90;99.90;;;;;;4955883;29;20974;-67
2021/09/22 04:11:54;;;;;;;18.17;16.27;;;9.90;99.90;;;;;;4955699;29;20483;-65
2021/09/22 04:14:21;;;;;;;16.13;13.97;;;9.90;99.90;;;;;;4955945;28;20455;-67
2021/09/22 04:16:48;;;;;;;15.70;14.30;;;9.80;99.90;;;;;;4955987;29;20482;-67
2021/09/22 04:19:16;;;;;;;18.43;15.53;;;9.80;99.90;;;;;;4955654;28;20947;-67
2021/09/22 04:21:43;;;;;;;16.63;15.03;;;9.70;99.90;;;;;;4955865;28;20483;-68
2021/09/22 04:24:10;;;;;;;17.20;15.50;;;9.80;99.90;;;;;;4955832;29;20487;-66
2021/09/22 04:26:37;;;;;;;16.93;15.23;;;9.80;99.90;;;;;;4956102;29;20452;-66
2021/09/22 04:29:04;;;;;;;15.73;14.33;;;9.90;99.90;;;;;;4955510;29;20815;-66
2021/09/22 04:31:31;;;;;;;15.80;14.20;;;9.80;99.90;;;;;;4955580;29;20487;-66
2021/09/22 04:33:58;;;;;;;16.10;13.50;;;9.90;99.90;;;;;;4956129;29;20459;-66
2021/09/22 04:36:26;;;;;;;15.93;14.33;;;9.90;99.90;;;;;;4956236;29;20781;-66
2021/09/22 04:38:53;;;;;;;15.87;14.23;;;9.80;99.90;;;;;;4955784;28;20455;-66
2021/09/22 04:41:20;;;;;;;14.60;13.20;;;9.90;99.90;;;;;;4955523;28;20859;-65
2021/09/22 04:43:47;;;;;;;16.20;14.60;;;9.90;99.90;;;;;;4955846;29;20946;-65
2021/09/22 04:46:15;;;;;;;15.03;13.53;;;9.90;99.90;;;;;;4956177;29;20459;-65
2021/09/22 04:48:43;;;;;;;15.10;13.73;;;9.90;99.90;;;;;;4955707;29;20929;-67
2021/09/22 04:51:09;;;;;;;15.60;14.30;;;9.90;99.90;;;;;;4956198;29;20498;-68
2021/09/22 04:53:38;;;;;;;16.53;15.03;;;9.90;99.90;;;;;;4955700;29;20478;-68
2021/09/22 04:56:05;;;;;;;16.70;15.20;;;9.90;99.90;;;;;;4957330;28;20455;-67
2021/09/22 04:58:32;;;;;;;21.50;15.33;;;9.80;99.90;;;;;;4959619;28;20443;-66
2021/09/22 05:01:01;;;;;;;16.97;15.20;;;9.80;99.90;;;;;;4959450;28;20494;-68
2021/09/22 05:03:29;;;;;;;17.47;15.67;;;9.70;99.90;;;;;;4959777;29;20455;-68
2021/09/22 05:05:57;;;;;;;17.00;15.30;;;9.60;99.90;;;;;;4959305;28;20542;-68
2021/09/22 05:08:23;;;;;;;14.50;13.20;;;9.60;99.90;;;;;;4959343;28;20455;-67
2021/09/22 05:10:53;;;;;;;16.30;14.53;;;9.60;99.90;;;;;;4959418;29;20479;-66
2021/09/22 05:13:20;;;;;;;16.27;14.67;;;9.60;99.90;;;;;;4962485;28;20495;-67
2021/09/22 05:15:47;;;;;;;15.90;14.40;;;9.60;99.90;;;;;;4966144;29;20465;-67
2021/09/22 05:18:14;;;;;;;17.13;15.07;;;9.50;99.90;;;;;;4960964;29;20444;-67
2021/09/22 05:20:41;;;;;;;16.37;14.77;;;9.50;99.90;;;;;;4959306;29;20475;-66
2021/09/22 05:23:07;;;;;;;17.37;15.57;;;9.40;99.90;;;;;;4959400;28;20463;-66
2021/09/22 05:25:34;;;;;;;19.00;16.50;;;9.40;99.90;;;;;;4958479;29;20456;-66
2021/09/22 05:28:02;;;;;;;16.40;14.80;;;9.30;99.90;;;;;;4958785;28;20455;-67
2021/09/22 05:30:29;;;;;;;21.93;14.80;;;9.40;99.90;;;;;;4958626;29;20463;-67
2021/09/22 05:32:56;;;;;;;17.67;15.80;;;9.40;99.90;;;;;;4958825;29;20486;-67
2021/09/22 05:35:22;;;;;;;16.73;14.70;;;9.30;99.90;;;;;;4958714;29;20460;-66
2021/09/22 05:37:49;;;;;;;17.30;15.30;;;9.30;99.90;;;;;;4958755;29;20797;-66
2021/09/22 05:40:16;;;;;;;17.53;15.73;;;9.30;99.90;;;;;;4958665;28;20471;-67
2021/09/22 05:42:42;;;;;;;18.60;15.50;;;9.30;99.90;;;;;;4958564;29;20452;-67
2021/09/22 05:45:14;;;;;;;18.10;16.03;;;9.30;99.90;;;;;;4958656;28;20850;-67
2021/09/22 05:47:41;;;;;;;16.30;14.70;;;9.30;99.90;;;;;;4958799;29;20483;-66
2021/09/22 05:50:08;;;;;;;16.80;15.00;;;9.40;99.90;;;;;;4959014;28;20463;-66
2021/09/22 05:52:35;;;;;;;17.57;15.80;;;9.50;99.90;;;;;;4958161;29;20491;-66
2021/09/22 05:55:01;;;;;;;18.07;16.20;;;9.60;99.90;;;;;;4958350;29;20459;-66
2021/09/22 05:57:28;;;;;;;17.10;15.30;;;9.60;99.90;;;;;;4958725;28;20459;-67
2021/09/22 05:59:55;;;;;;;16.23;14.73;;;9.80;99.90;;;;;;4958288;28;20460;-66
2021/09/22 06:02:23;;;;;;;21.30;16.33;;;9.90;99.90;;;;;;4958485;29;20479;-66
2021/09/22 06:04:50;;;;;;;18.00;16.13;;;10.00;99.90;;;;;;4958207;28;20991;-66
2021/09/22 06:07:16;;;;;;;18.40;16.50;;;10.10;99.90;;;;;;4957097;28;20938;-66
2021/09/22 06:09:43;;;;;;;19.50;15.73;;;10.20;99.90;;;;;;4958405;29;20452;-67
2021/09/22 06:12:10;;;;;;;19.10;16.50;;;10.40;99.90;;;;;;4958102;29;20483;-67
2021/09/22 06:14:37;;;;;;;20.57;18.47;;;10.50;99.90;;;;;;4958610;28;20969;-68
2021/09/22 06:17:04;;;;;;;19.67;16.50;;;10.70;99.90;;;;;;4958581;29;20446;-69
2021/09/22 06:19:32;;;;;;;18.57;16.90;;;10.80;99.90;;;;;;4958638;28;20459;-68
2021/09/22 06:21:58;;;;;;;22.60;17.17;;;11.20;99.90;;;;;;4958395;29;20476;-68
2021/09/22 06:24:25;;;;;;;15.33;13.90;;;11.70;99.90;;;;;;4958602;28;20455;-68
2021/09/22 06:26:52;;;;;;;17.63;15.60;;;12.20;99.90;;;;;;4958227;29;20463;-69
2021/09/22 06:29:19;;;;;;;23.70;16.83;;;12.70;99.90;;;;;;4957845;29;20982;-69
2021/09/22 06:31:46;;;;;;;16.80;15.20;;;13.20;99.90;;;;;;4959336;29;20479;-69
2021/09/22 06:34:12;;;;;;;16.10;14.50;;;13.60;99.90;;;;;;4968441;29;20440;-69
2021/09/22 06:36:40;;;;;;;15.83;14.37;;;13.90;99.90;;;;;;4958903;29;20445;-69
2021/09/22 06:39:07;;;;;;;15.10;13.80;;;14.30;99.90;;;;;;4958677;28;20455;-69
2021/09/22 06:41:34;;;;;;;14.60;13.30;;;14.70;99.90;;;;;;4959514;29;21006;-69
2021/09/22 06:44:01;;;;;;;14.70;13.40;;;15.10;99.90;;;;;;4959187;29;20460;-69
2021/09/22 06:46:28;;;;;;;15.07;13.67;;;15.30;99.90;;;;;;4958307;29;20881;-69
2021/09/22 06:48:55;;;;;;;14.60;13.30;;;15.50;99.90;;;;;;4957991;28;20456;-69
2021/09/22 06:51:22;;;;;;;15.43;13.90;;;15.90;99.90;;;;;;4957841;29;20490;-68
2021/09/22 06:53:50;;;;;;;15.47;13.87;;;16.00;99.90;;;;;;4957319;29;20962;-69
2021/09/22 06:56:17;;;;;;;16.10;14.53;;;16.10;99.90;;;;;;4957617;28;20518;-69
2021/09/22 06:58:44;;;;;;;16.33;14.77;;;16.10;99.90;;;;;;4957582;29;20455;-69
2021/09/22 07:01:10;;;;;;;15.60;13.93;;;16.40;99.90;;;;;;4957084;28;20483;-69
2021/09/22 07:03:37;;;;;;;22.80;14.17;;;16.60;99.90;;;;;;4957200;29;20479;-69
2021/09/22 07:06:05;;;;;;;18.37;16.83;;;17.00;99.90;;;;;;4957164;29;20468;-69
2021/09/22 07:08:31;;;;;;;16.23;13.83;;;17.20;99.90;;;;;;4957181;29;21043;-69
2021/09/22 07:10:59;;;;;;;16.80;14.80;;;17.40;99.90;;;;;;4957166;29;20475;-68
2021/09/22 07:13:26;;;;;;;19.20;15.10;;;17.50;99.90;;;;;;4956901;29;20970;-69
2021/09/22 07:15:53;;;;;;;16.77;15.27;;;17.70;99.90;;;;;;4957554;29;20468;-68
2021/09/22 07:18:20;;;;;;;16.40;15.10;;;17.80;99.90;;;;;;4956935;28;20462;-68
2021/09/22 07:20:48;;;;;;;16.30;14.90;;;17.90;99.90;;;;;;4956896;29;20475;-68
2021/09/22 07:23:15;;;;;;;16.07;14.67;;;18.20;99.90;;;;;;4956754;29;20455;-69
2021/09/22 07:25:42;;;;;;;16.87;15.10;;;18.30;99.90;;;;;;4956847;29;20464;-69
2021/09/22 07:28:11;;;;;;;17.83;16.23;;;18.60;99.90;;;;;;4956840;29;20455;-69
2021/09/22 07:30:37;;;;;;;16.80;15.30;;;18.60;99.90;;;;;;4956843;28;20550;-69
2021/09/22 07:33:06;;;;;;;17.60;16.00;;;18.30;99.90;;;;;;4957039;29;20540;-69
2021/09/22 07:35:33;;;;;;;17.07;15.47;;;18.10;99.90;;;;;;4956536;29;21041;-68
2021/09/22 07:38:01;;;;;;;17.07;15.67;;;18.30;99.90;;;;;;4956950;28;20455;-68
2021/09/22 07:40:28;;;;;;;17.07;15.57;;;18.50;99.90;;;;;;4956932;28;20460;-68
2021/09/22 07:42:56;;;;;;;17.63;16.03;;;18.70;99.90;;;;;;4958010;29;20451;-69
2021/09/22 07:45:24;;;;;;;16.87;15.47;;;19.00;99.90;;;;;;4957185;29;20890;-69
2021/09/22 07:47:51;;;;;;;17.33;15.73;;;19.40;99.90;;;;;;4956830;29;20446;-69
2021/09/22 07:50:18;;;;;;;16.87;15.47;;;19.90;99.90;;;;;;4956461;29;20455;-69
2021/09/22 07:52:45;;;;;;;17.10;15.60;;;19.90;99.90;;;;;;4956897;28;20479;-69
2021/09/22 07:55:12;;;;;;;16.80;15.40;;;20.20;99.90;;;;;;4956583;29;20455;-69
2021/09/22 07:57:39;;;;;;;15.17;13.90;;;20.00;99.90;;;;;;4957855;28;20514;-69
2021/09/22 08:00:08;;;;;;;15.77;14.43;;;20.30;99.90;;;;;;4956861;29;20459;-69
2021/09/22 08:02:36;;;;;;;15.17;14.00;;;20.80;99.90;;;;;;4956649;29;20467;-69
2021/09/22 08:05:04;;;;;;;16.43;14.73;;;21.20;99.90;;;;;;4956501;29;20462;-69
2021/09/22 08:07:31;;;;;;;16.30;14.80;;;21.60;98.90;;;;;;4956362;29;20451;-69
2021/09/22 08:09:57;;;;;;;16.47;14.97;;;21.60;98.10;;;;;;4955982;28;20969;-69
2021/09/22 08:12:24;;;;;;;15.90;14.47;;;21.70;98.50;;;;;;4956239;29;20487;-69
2021/09/22 08:14:51;;;;;;;16.00;14.47;;;22.10;97.00;;;;;;4956165;28;21078;-69
2021/09/22 08:17:18;;;;;;;15.83;14.43;;;22.10;96.60;;;;;;4956194;29;20460;-69
2021/09/22 08:19:47;;;;;;;15.53;14.30;;;22.50;95.40;;;;;;4955687;29;20460;-69
2021/09/22 08:22:14;;;;;;;15.47;14.07;;;22.90;93.80;;;;;;4955840;29;20873;-68
2021/09/22 08:24:40;;;;;;;15.33;14.03;;;22.30;95.10;;;;;;4956103;29;20467;-69
2021/09/22 08:27:07;;;;;;;15.27;14.07;;;22.50;94.00;;;;;;4956169;29;20455;-69
2021/09/22 08:29:36;;;;;;;17.47;15.67;;;22.50;93.10;;;;;;4955996;28;20830;-69
2021/09/22 08:32:04;;;;;;;15.07;13.97;;;22.60;93.20;;;;;;4959374;29;20480;-69
2021/09/22 08:34:30;;;;;;;16.30;15.00;;;22.40;93.90;;;;;;4959876;29;20818;-69
2021/09/22 08:36:59;;;;;;;16.07;14.77;;;22.30;94.40;;;;;;4959842;29;20456;-69
2021/09/22 08:39:29;;;;;;;15.30;14.10;;;22.60;95.50;;;;;;4960416;28;20455;-69
2021/09/22 08:41:56;;;;;;;15.47;14.27;;;23.20;94.10;;;;;;4959713;29;20472;-69
2021/09/22 08:44:23;;;;;;;14.17;13.17;;;23.70;91.70;;;;;;4960010;28;20466;-69
2021/09/22 08:46:50;;;;;;;18.13;15.20;;;24.30;91.80;;;;;;4961053;28;20456;-69
2021/09/22 08:49:16;;;;;;;16.20;14.80;;;23.30;90.80;;;;;;4959407;28;20459;-68
2021/09/22 08:51:44;;;;;;;16.17;14.90;;;23.80;91.30;;;;;;4959118;29;20490;-68
2021/09/22 08:54:13;;;;;;;15.70;14.50;;;23.40;92.00;;;;;;4960102;28;20483;-69
2021/09/22 08:56:42;;;;;;;15.17;13.90;;;24.30;90.70;;;;;;4960118;29;20463;-69
2021/09/22 08:59:10;;;;;;;15.13;13.67;;;24.30;90.00;;;;;;4959575;29;20459;-69
2021/09/22 09:01:37;;;;;;;14.63;13.53;;;25.10;90.00;;;;;;4959472;29;20487;-69
2021/09/22 09:04:16;;;;;;;13.67;12.70;;;25.40;82.30;;;;;;4959157;29;20955;-69
2021/09/22 09:06:43;;;;;;;14.50;13.40;;;26.00;79.90;;;;;;4959752;29;20451;-69
2021/09/22 09:09:10;;;;;;;14.73;13.63;;;26.20;78.40;;;;;;4959328;29;20463;-68
2021/09/22 09:11:40;;;;;;;15.00;13.70;;;26.50;76.40;;;;;;4962738;29;20479;-68
2021/09/22 09:14:09;;;;;;;14.63;13.40;;;26.30;76.60;;;;;;4965432;29;20444;-68
2021/09/22 09:16:38;;;;;;;15.07;13.87;;;25.90;74.80;;;;;;4961632;29;20845;-68
2021/09/22 09:19:12;;;;;;;16.60;15.30;;;25.20;75.20;;;;;;4960367;28;20555;-68
2021/09/22 09:21:57;;;;;;;15.30;14.13;;;25.10;75.30;;;;;;4959686;29;20480;-68
2021/09/22 09:24:35;;;;;;;17.03;15.47;;;24.60;76.20;;;;;;4959240;29;20459;-68
2021/09/22 09:27:04;;;;;;;14.40;13.30;;;25.10;75.90;;;;;;4958871;28;20459;-68
2021/09/22 09:29:31;;;;;;;13.53;12.43;;;25.10;75.20;;;;;;4959704;28;20777;-68
2021/09/22 09:32:13;;;;;;;16.83;13.40;;;25.60;72.40;;;;;;4958723;29;20560;-68
2021/09/22 09:34:58;;;;;;;13.83;12.80;;;26.10;69.60;;;;;;4958642;29;20456;-68
2021/09/22 09:37:33;;;;;;;11.80;11.00;;;25.90;70.30;;;;;;4958903;29;20809;-67
2021/09/22 09:40:23;;;;;;;12.10;10.97;;;26.70;74.50;;;;;;4958695;29;20455;-68
2021/09/22 09:42:53;;;;;;;14.20;12.87;;;27.10;64.50;;;;;;4957660;28;20444;-68
2021/09/22 09:45:21;;;;;;;14.60;13.40;;;27.80;66.20;;;;;;4958199;29;20915;-69
2021/09/22 09:48:08;;;;;;;11.57;10.77;;;27.50;66.70;;;;;;4958499;29;20461;-68
2021/09/22 09:50:45;;;;;;;9.77;9.07;;;28.20;64.40;;;;;;4958437;29;20479;-68
2021/09/22 09:53:23;;;;;;;9.50;8.73;;;28.90;56.70;;;;;;4958435;29;20467;-68
2021/09/22 09:55:50;;;;;;;8.77;7.97;;;28.80;55.40;;;;;;4958220;29;20444;-68
2021/09/22 09:58:19;;;;;;;9.37;8.67;;;28.90;56.60;;;;;;4958197;29;20519;-68
2021/09/22 10:00:47;;;;;;;9.17;8.57;;;28.70;59.10;;;;;;4958016;28;20491;-68
2021/09/22 10:03:16;;;;;;;9.47;8.57;;;28.80;58.70;;;;;;4958304;29;20797;-68
2021/09/22 10:05:43;;;;;;;7.60;6.90;;;29.20;56.10;;;;;;4958324;29;20860;-68
2021/09/22 10:08:11;;;;;;;7.87;7.30;;;29.30;56.00;;;;;;4958564;29;20551;-68
2021/09/22 10:10:38;;;;;;;8.20;7.60;;;29.10;54.50;;;;;;4958553;29;20482;-68
2021/09/22 10:13:06;;;;;;;8.03;7.43;;;29.10;55.70;;;;;;4958407;29;20479;-68
2021/09/22 10:15:34;;;;;;;8.53;7.93;;;28.60;56.10;;;;;;4958554;29;20798;-68
2021/09/22 10:18:01;;;;;;;7.93;7.43;;;28.70;55.50;;;;;;4958711;29;20459;-69
2021/09/22 10:20:28;;;;;;;7.97;7.37;;;29.20;55.80;;;;;;4959159;29;20455;-68
2021/09/22 10:22:54;;;;;;;7.03;6.53;;;29.10;55.10;;;;;;4959616;29;20458;-68
2021/09/22 10:25:23;;;;;;;5.50;5.20;;;29.50;56.60;;;;;;4961188;29;20459;-68
2021/09/22 10:27:50;;;;;;;6.40;5.80;;;28.60;58.80;;;;;;4958667;29;20459;-67
2021/09/22 10:30:17;;;;;;;7.60;7.10;;;28.70;59.80;;;;;;4958417;28;20463;-67
2021/09/22 10:32:47;;;;;;;6.60;6.07;;;28.20;56.50;;;;;;4958065;29;21009;-67
2021/09/22 10:35:35;;;;;;;9.07;7.67;;;28.50;58.90;;;;;;4958629;28;20448;-68
2021/09/22 10:38:38;;;;;;;8.23;7.63;;;28.50;56.70;;;;;;4958224;29;20506;-68
2021/09/22 10:41:07;;;;;;;9.27;6.43;;;29.00;55.40;;;;;;4957914;29;21046;-67
2021/09/22 10:43:38;;;;;;;8.03;7.43;;;29.00;57.10;;;;;;4959819;29;20452;-68
2021/09/22 10:46:18;;;;;;;8.03;7.33;;;28.80;55.90;;;;;;4959279;29;20472;-68
2021/09/22 10:49:04;;;;;;;8.07;7.20;;;28.50;55.10;;;;;;4957909;29;20444;-68
2021/09/22 10:51:32;;;;;;;7.93;7.00;;;28.40;56.30;;;;;;4957585;28;20547;-67
2021/09/22 10:54:10;;;;;;;6.07;5.50;;;28.70;56.30;;;;;;4956755;28;20487;-67
2021/09/22 10:56:54;;;;;;;6.43;6.03;;;28.10;59.40;;;;;;4960465;29;20907;-66
2021/09/22 10:59:30;;;;;;;6.13;5.73;;;28.00;57.40;;;;;;4957249;29;20447;-66
2021/09/22 11:01:57;;;;;;;7.63;7.03;;;27.80;57.80;;;;;;4956968;29;20482;-66
2021/09/22 11:04:24;;;;;;;6.73;6.20;;;27.60;58.90;;;;;;4957143;29;20451;-68
2021/09/22 11:06:53;;;;;;;6.03;5.50;;;27.10;58.50;;;;;;4957239;29;20507;-66
2021/09/22 11:09:34;;;;;;;6.27;5.87;;;26.80;59.30;;;;;;4956906;29;20455;-67
2021/09/22 11:12:11;;;;;;;5.60;5.10;;;26.40;62.80;;;;;;4956918;29;20486;-67
2021/09/22 11:14:52;;;;;;;6.80;6.30;;;25.50;64.20;;;;;;4957057;29;20435;-67
2021/09/22 11:17:23;;;;;;;7.40;5.90;;;24.90;62.90;;;;;;4956965;29;20840;-68
2021/09/22 11:19:52;;;;;;;6.37;5.97;;;24.20;69.00;;;;;;4956902;28;20447;-68
2021/09/22 11:22:21;;;;;;;7.27;6.60;;;23.90;68.10;;;;;;4956495;29;21001;-68
2021/09/22 11:24:48;;;;;;;6.47;5.97;;;24.10;66.20;;;;;;4957010;28;20455;-69
2021/09/22 11:27:18;;;;;;;6.23;5.63;;;24.10;69.00;;;;;;4956614;28;20534;-68
2021/09/22 11:29:48;;;;;;;6.97;5.93;;;23.60;70.00;;;;;;4956735;29;20459;-68
2021/09/22 11:32:33;;;;;;;6.03;5.47;;;23.90;69.80;;;;;;4957397;28;20471;-68
2021/09/22 11:35:03;;;;;;;4.70;4.30;;;23.50;69.00;;;;;;4957096;29;20455;-68
2021/09/22 11:37:32;;;;;;;4.90;4.40;;;23.40;73.30;;;;;;4956981;29;20547;-68
2021/09/22 11:40:17;;;;;;;5.07;4.77;;;23.30;75.00;;;;;;4956763;28;20459;-68
2021/09/22 11:42:57;;;;;;;6.70;5.83;;;23.90;70.10;;;;;;4957035;29;20458;-68
2021/09/22 11:45:26;;;;;;;5.53;4.77;;;24.00;69.20;;;;;;4956864;29;20462;-68
2021/09/22 11:47:53;;;;;;;4.50;4.13;;;24.30;68.60;;;;;;4956804;28;20455;-67
2021/09/22 11:50:29;;;;;;;4.67;3.87;;;24.30;74.00;;;;;;4956545;29;20455;-68
2021/09/22 11:52:56;;;;;;;5.30;4.80;;;24.60;72.10;;;;;;4956441;29;20460;-68
2021/09/22 11:55:24;;;;;;;4.20;3.90;;;24.70;69.30;;;;;;4956563;29;20459;-68
2021/09/22 11:57:51;;;;;;;4.80;4.40;;;24.30;72.20;;;;;;4956280;28;20824;-68
2021/09/22 12:00:21;;;;;;;5.60;4.30;;;24.40;69.40;;;;;;4956236;28;20811;-68
2021/09/22 12:02:49;;;;;;;4.67;4.30;;;24.50;72.30;;;;;;4956247;29;20798;-68
2021/09/22 12:05:16;;;;;;;4.80;4.40;;;24.30;70.40;;;;;;4955864;29;20466;-68
2021/09/22 12:07:44;;;;;;;4.17;3.87;;;24.10;71.40;;;;;;4956553;28;20468;-68
2021/09/22 12:10:12;;;;;;;4.80;4.40;;;24.20;72.60;;;;;;4956380;29;20457;-67
2021/09/22 12:12:40;;;;;;;4.87;4.47;;;23.90;73.50;;;;;;4956322;29;20482;-68
2021/09/22 12:15:09;;;;;;;5.97;5.30;;;24.10;74.30;;;;;;4956103;29;20459;-68
2021/09/22 12:17:39;;;;;;;6.20;5.60;;;23.80;70.70;;;;;;4956137;28;20455;-68
2021/09/22 12:20:10;;;;;;;6.73;5.30;;;23.60;72.90;;;;;;4956356;29;20455;-68
2021/09/22 12:22:39;;;;;;;7.00;5.37;;;23.50;74.50;;;;;;4955843;29;20983;-68
2021/09/22 12:25:07;;;;;;;5.93;5.40;;;23.40;73.60;;;;;;4956416;29;20478;-68
2021/09/22 12:27:35;;;;;;;5.63;5.03;;;23.10;75.60;;;;;;4956739;29;20466;-68
2021/09/22 12:30:06;;;;;;;8.50;6.03;;;23.20;75.90;;;;;;4956263;29;20466;-68
2021/09/22 12:32:35;;;;;;;5.60;5.10;;;23.00;78.10;;;;;;4955831;29;20491;-68
2021/09/22 12:35:07;;;;;;;5.33;4.87;;;23.10;77.20;;;;;;4957441;29;20456;-68
2021/09/22 12:37:35;;;;;;;5.20;4.80;;;22.80;78.70;;;;;;4960483;29;20451;-67
2021/09/22 12:40:04;;;;;;;6.73;5.43;;;22.60;79.70;;;;;;4959763;28;20816;-68
2021/09/22 12:42:40;;;;;;;5.10;4.80;;;22.60;79.50;;;;;;4959387;28;21002;-69
2021/09/22 12:45:10;;;;;;;5.73;5.23;;;22.70;80.10;;;;;;4959136;29;20455;-69
2021/09/22 12:47:37;;;;;;;5.53;4.90;;;22.50;79.60;;;;;;4960896;28;20456;-69
2021/09/22 12:50:17;;;;;;;5.97;5.50;;;22.60;80.90;;;;;;4960439;28;20459;-69
2021/09/22 12:52:45;;;;;;;5.80;5.30;;;22.80;79.10;;;;;;4959065;28;20458;-69
2021/09/22 12:55:18;;;;;;;5.53;5.13;;;23.00;80.40;;;;;;4958002;29;20460;-69
2021/09/22 12:57:46;;;;;;;6.00;4.90;;;23.10;77.20;;;;;;4957815;29;20930;-69
2021/09/22 13:00:40;;;;;;;5.93;5.17;;;23.10;81.40;;;;;;4957472;29;20970;-69
2021/09/22 13:03:16;;;;;;;5.37;4.97;;;23.40;79.90;;;;;;4957885;29;20844;-69
2021/09/22 13:05:47;;;;;;;5.30;4.90;;;23.40;81.50;;;;;;4957934;29;20453;-69
2021/09/22 13:08:16;;;;;;;6.67;5.37;;;23.40;80.60;;;;;;4957786;29;20447;-69
2021/09/22 13:11:05;;;;;;;6.20;4.90;;;23.30;82.10;;;;;;4957547;29;20485;-69
2021/09/22 13:13:57;;;;;;;5.20;4.60;;;23.30;81.30;;;;;;4955576;29;20556;-69
2021/09/22 13:16:32;;;;;;;5.43;5.03;;;23.10;79.40;;;;;;4941871;28;20486;-69
2021/09/22 13:19:00;;;;;;;5.73;5.23;;;22.80;81.10;;;;;;4959095;29;20439;-69
2021/09/22 13:21:29;;;;;;;5.03;4.63;;;22.90;80.30;;;;;;4959642;29;20482;-69
2021/09/22 13:23:58;;;;;;;5.17;4.77;;;22.70;81.40;;;;;;4959577;29;20447;-69
2021/09/22 13:26:25;;;;;;;5.10;4.80;;;22.70;81.90;;;;;;4960302;28;20453;-69
2021/09/22 13:28:55;;;;;;;5.70;5.20;;;22.70;83.00;;;;;;4961235;29;20463;-69
2021/09/22 13:31:22;;;;;;;5.67;5.10;;;22.70;84.50;;;;;;4960862;29;20563;-69
2021/09/22 13:33:49;;;;;;;5.87;5.37;;;23.10;82.30;;;;;;4958667;29;20509;-69
2021/09/22 13:36:17;;;;;;;6.07;5.53;;;23.10;82.00;;;;;;4958768;28;20471;-70
2021/09/22 13:38:45;;;;;;;5.80;5.30;;;22.90;80.70;;;;;;4958413;28;21013;-69
2021/09/22 13:41:12;;;;;;;6.37;5.77;;;22.50;80.00;;;;;;4958666;29;20478;-69
2021/09/22 13:43:39;;;;;;;6.00;5.60;;;22.60;82.60;;;;;;4958889;28;20815;-69
2021/09/22 13:46:06;;;;;;;6.40;5.80;;;22.80;80.20;;;;;;4959498;29;20455;-69
2021/09/22 13:48:33;;;;;;;7.70;5.20;;;22.90;82.80;;;;;;4958764;29;20467;-69
2021/09/22 13:51:01;;;;;;;5.73;5.33;;;22.60;82.70;;;;;;4958670;28;20559;-69
2021/09/22 13:53:27;;;;;;;5.97;5.50;;;22.30;81.80;;;;;;4960319;29;20483;-69
2021/09/22 13:55:57;;;;;;;6.73;5.00;;;22.00;82.80;;;;;;4958224;29;20467;-69
2021/09/22 13:58:24;;;;;;;4.60;4.30;;;21.90;85.70;;;;;;4958782;29;20459;-69
2021/09/22 14:00:51;;;;;;;5.10;4.70;;;21.90;86.30;;;;;;4957916;28;20987;-69
2021/09/22 14:03:18;;;;;;;6.00;4.80;;;21.70;84.30;;;;;;4958281;28;20460;-69
2021/09/22 14:05:45;;;;;;;5.80;4.80;;;21.50;85.40;;;;;;4957971;29;20462;-69
2021/09/22 14:08:14;;;;;;;5.00;4.50;;;21.70;85.70;;;;;;4958439;29;20459;-69
2021/09/22 14:10:41;;;;;;;4.70;4.33;;;21.80;87.40;;;;;;4958537;28;20503;-69
2021/09/22 14:13:09;;;;;;;4.77;4.37;;;22.00;87.60;;;;;;4958031;29;20455;-69
2021/09/22 14:15:37;;;;;;;4.47;4.00;;;21.80;86.30;;;;;;4958574;29;20467;-69
2021/09/22 14:18:04;;;;;;;4.33;3.97;;;21.90;86.40;;;;;;4958449;29;20460;-69
2021/09/22 14:20:32;;;;;;;6.27;5.17;;;22.20;88.10;;;;;;4958458;28;20456;-69
2021/09/22 14:23:00;;;;;;;5.90;5.43;;;22.30;85.40;;;;;;4958053;29;20463;-69
2021/09/22 14:25:27;;;;;;;5.30;4.83;;;22.20;86.20;;;;;;4957829;28;20455;-69
2021/09/22 14:27:54;;;;;;;4.67;4.13;;;22.30;85.90;;;;;;4957537;28;20466;-69
2021/09/22 14:30:23;;;;;;;4.50;4.20;;;22.40;85.60;;;;;;4958660;28;20523;-69
2021/09/22 14:32:51;;;;;;;7.80;4.30;;;22.40;84.70;;;;;;4958127;28;20944;-69
2021/09/22 14:35:19;;;;;;;5.63;4.00;;;22.30;84.60;;;;;;4957823;29;20479;-69
2021/09/22 14:37:46;;;;;;;6.13;3.87;;;22.40;88.40;;;;;;4957862;29;20482;-69
2021/09/22 14:40:14;;;;;;;4.97;4.60;;;22.30;86.20;;;;;;4959275;29;20464;-69
2021/09/22 14:42:43;;;;;;;4.83;4.13;;;22.20;85.20;;;;;;4960113;29;20459;-69
2021/09/22 14:45:16;;;;;;;6.50;4.97;;;22.20;87.90;;;;;;4959748;29;20931;-69
2021/09/22 14:47:44;;;;;;;10.63;5.00;;;22.30;89.40;;;;;;4962996;29;20435;-70
2021/09/22 14:50:12;;;;;;;4.70;4.30;;;22.40;87.20;;;;;;4963420;28;20466;-69
2021/09/22 14:52:40;;;;;;;5.33;4.33;;;22.50;87.60;;;;;;4960045;28;20472;-70
2021/09/22 14:55:08;;;;;;;4.87;4.57;;;22.20;87.30;;;;;;4958746;28;20491;-69
2021/09/22 14:57:35;;;;;;;4.40;4.10;;;22.20;88.90;;;;;;4957920;28;20514;-70
2021/09/22 15:00:04;;;;;;;5.07;4.57;;;22.20;86.90;;;;;;4957882;29;20462;-69
2021/09/22 15:02:31;;;;;;;6.20;3.93;;;22.30;88.50;;;;;;4958886;29;20491;-69
2021/09/22 15:04:59;;;;;;;5.67;4.20;;;22.30;88.70;;;;;;4958086;29;20483;-68
2021/09/22 15:07:26;;;;;;;4.97;4.00;;;22.30;89.10;;;;;;4958861;29;20467;-68
2021/09/22 15:09:53;;;;;;;4.40;3.63;;;22.10;88.10;;;;;;4960157;29;20454;-68
2021/09/22 15:12:19;;;;;;;4.87;3.40;;;21.90;88.80;;;;;;4960211;28;20482;-68
2021/09/22 15:14:46;;;;;;;3.77;3.47;;;22.00;88.70;;;;;;4958907;28;20843;-68
2021/09/22 15:17:13;;;;;;;4.30;4.00;;;22.10;89.30;;;;;;4957577;29;20456;-68
2021/09/22 15:19:40;;;;;;;6.60;4.33;;;22.00;91.00;;;;;;4956950;29;20459;-69
2021/09/22 15:22:08;;;;;;;4.13;3.63;;;22.10;90.30;;;;;;4957337;29;20479;-68
2021/09/22 15:24:34;;;;;;;4.57;4.17;;;22.00;90.30;;;;;;4956965;29;20807;-68
2021/09/22 15:27:01;;;;;;;4.13;3.93;;;21.80;90.00;;;;;;4957574;29;20460;-68
2021/09/22 15:29:28;;;;;;;8.07;4.37;;;21.70;90.60;;;;;;4956900;29;20459;-68
2021/09/22 15:31:54;;;;;;;6.30;4.27;;;21.60;90.00;;;;;;4956848;29;20784;-68
2021/09/22 15:34:21;;;;;;;6.50;3.60;;;21.50;90.60;;;;;;4956501;28;20475;-68
2021/09/22 15:36:48;;;;;;;4.50;3.90;;;21.50;92.80;;;;;;4956890;28;20815;-68
2021/09/22 15:39:16;;;;;;;3.63;3.33;;;21.40;91.70;;;;;;4956841;28;20459;-68
2021/09/22 15:41:43;;;;;;;3.90;3.70;;;21.50;91.80;;;;;;4956413;29;20475;-69
2021/09/22 15:44:10;;;;;;;6.67;3.83;;;21.40;91.40;;;;;;4956753;29;20456;-69
2021/09/22 15:46:36;;;;;;;3.90;3.60;;;21.10;91.50;;;;;;4956678;28;20459;-68
2021/09/22 15:49:03;;;;;;;3.80;3.50;;;20.80;92.50;;;;;;4958419;29;20455;-65
2021/09/22 15:51:30;;;;;;;7.43;3.53;;;20.80;93.60;;;;;;4958416;29;20483;-66
2021/09/22 15:53:56;;;;;;;9.47;3.60;;;20.60;94.70;;;;;;4957094;29;20475;-67
2021/09/22 15:56:25;;;;;;;4.00;3.70;;;20.50;94.40;;;;;;4957667;29;20928;-66
2021/09/22 15:58:52;;;;;;;5.13;3.60;;;20.40;95.00;;;;;;4957416;29;20951;-66
2021/09/22 16:01:19;;;;;;;4.43;4.03;;;20.20;95.10;;;;;;4958582;28;20487;-67
2021/09/22 16:03:46;;;;;;;4.57;4.17;;;20.10;95.60;;;;;;4958552;29;20951;-68
2021/09/22 16:06:12;;;;;;;3.97;3.67;;;20.10;95.90;;;;;;4965242;29;20463;-68
2021/09/22 16:08:40;;;;;;;6.13;3.70;;;20.10;95.40;;;;;;4965995;29;20451;-68
2021/09/22 16:11:08;;;;;;;10.63;3.87;;;20.00;95.60;;;;;;4956803;29;20491;-68
2021/09/22 16:13:36;;;;;;;3.90;3.60;;;20.10;96.30;;;;;;4956258;29;20452;-68
2021/09/22 16:16:03;;;;;;;3.70;3.50;;;20.00;97.10;;;;;;4956875;29;20475;-68
2021/09/22 16:18:34;;;;;;;4.23;3.70;;;19.90;97.00;;;;;;4956234;28;20451;-68
2021/09/22 16:21:01;;;;;;;4.13;3.80;;;19.90;97.50;;;;;;4956552;29;20479;-68
2021/09/22 16:23:28;;;;;;;3.50;3.30;;;19.80;98.50;;;;;;4956210;29;20554;-68
2021/09/22 16:25:54;;;;;;;6.00;3.80;;;19.80;98.80;;;;;;4956112;28;20452;-68
2021/09/22 16:28:21;;;;;;;3.57;3.27;;;19.70;98.50;;;;;;4956357;29;20866;-68
2021/09/22 16:30:49;;;;;;;3.57;3.30;;;19.70;98.60;;;;;;4955947;29;20991;-68
2021/09/22 16:33:16;;;;;;;4.20;3.80;;;19.60;98.80;;;;;;4955879;28;20977;-68
2021/09/22 16:35:44;;;;;;;4.23;3.50;;;19.50;98.80;;;;;;4956398;29;20551;-68
2021/09/22 16:38:10;;;;;;;4.20;3.77;;;19.30;99.20;;;;;;4956945;29;20455;-68
2021/09/22 16:40:37;;;;;;;4.20;3.90;;;19.20;99.80;;;;;;4956034;28;21011;-68
2021/09/22 16:43:04;;;;;;;3.57;3.23;;;19.20;99.90;;;;;;4956327;29;20456;-68
2021/09/22 16:45:31;;;;;;;10.00;5.80;;;19.10;99.90;;;;;;4956424;29;20439;-67
2021/09/22 16:47:59;;;;;;;3.97;3.57;;;19.00;99.90;;;;;;4956188;28;20451;-68